Airfield :
LOGIN :

Register | Disclaimer

   EN    FR    IT 

 










Legend :    VFR   Marginal VFR   IFR   Intensive IFR   Very Intensive IFR
Visi :
Ceiling :
>= 8 km
>= 3000ft
5 to 8 km
1000 to 3000 ft
1500m to 5 km
500 to 1000 ft
800 to 1500m
200 to 500 ft
< 800m
< 200 ft
Symbols :   Thunderstorms  Fog  Heavy snow  Heavy precipitations  Wind > 20 kt
SIGMETs :     Misc.  Thunderstorms  Icing  Turbulence  Mountain Waves  Volcanic Ashes






- Airport Elevation : 499 ft
- IATA code : TLS


LFBO - Toulouse / Blagnac

CURRENT METAR :
  • 210530Z AUTO 17007KT 9999 FEW007 BKN096 OVC140 11/09 Q1013 TEMPO BKN013

EXPIRED METARs :
  • 210500Z AUTO 17007KT CAVOK 10/09 Q1013 TEMPO BKN013
  • 210430Z AUTO 17008KT CAVOK 11/09 Q1013 TEMPO BKN013
  • 210400Z AUTO 18006KT 150V210 CAVOK 11/09 Q1013 TEMPO BKN013
  • 210330Z AUTO 18005KT CAVOK 10/08 Q1013 TEMPO BKN013
  • 210300Z AUTO 19005KT CAVOK 11/08 Q1013 TEMPO BKN013

TAF TAF LFBO
Valid from the 21 at 06:00 until the 22 at 12:00 UTC


210500Z 2106/2212 17005KT CAVOK
PROB30
TEMPO 2106/2108 BKN013
BECMG 2107/2109 14012KT
PROB40
TEMPO 2109/2117 SCT035TCU
PROB30 2113/2117 -SHRA
PROB30
TEMPO 2201/2203 BKN013
PROB30
TEMPO 2204/2208 BKN025
BECMG 2206/2208 12016G26KT
ATIS : +33 5 62 74 66 36



MET'MAP, your aeronautical weather chart ! - Copyright ORBIFLY December 2007 - Disclaimer

ORBIFLY MET'MAP TEAM :

Programming & Development : Alexandra Zaïnal
Concept & original design : Baudouin d'Aumeries
Assistance for programming : Marc-Olivier Méhu
Technical & hardware support : Manuel Goepfert

Contact : metmap@orbifly.com




SOURCES & CREDITS :

   NOAA